sensor_id;sensor_type;location;lat;lon;timestamp;temperature;humidity
7472;DHT22;3777;48.722;8.110;2023-02-26T00:01:26;2.60;99.90
7472;DHT22;3777;48.722;8.110;2023-02-26T00:03:58;2.60;99.90
7472;DHT22;3777;48.722;8.110;2023-02-26T00:06:26;2.60;99.90
7472;DHT22;3777;48.722;8.110;2023-02-26T00:08:53;2.60;99.90
7472;DHT22;3777;48.722;8.110;2023-02-26T00:11:21;2.60;99.90
7472;DHT22;3777;48.722;8.110;2023-02-26T00:13:48;2.60;99.90
7472;DHT22;3777;48.722;8.110;2023-02-26T00:16:23;2.50;99.90
7472;DHT22;3777;48.722;8.110;2023-02-26T00:18:53;2.60;99.90
7472;DHT22;3777;48.722;8.110;2023-02-26T00:21:21;2.60;99.90
7472;DHT22;3777;48.722;8.110;2023-02-26T00:23:49;2.60;99.90
7472;DHT22;3777;48.722;8.110;2023-02-26T00:26:16;2.60;99.90
7472;DHT22;3777;48.722;8.110;2023-02-26T00:28:44;2.60;99.90
7472;DHT22;3777;48.722;8.110;2023-02-26T00:31:13;2.60;99.90
7472;DHT22;3777;48.722;8.110;2023-02-26T00:33:41;2.60;99.90
7472;DHT22;3777;48.722;8.110;2023-02-26T00:36:20;2.50;99.90
7472;DHT22;3777;48.722;8.110;2023-02-26T00:38:56;2.50;99.90
7472;DHT22;3777;48.722;8.110;2023-02-26T00:41:26;2.40;99.90
7472;DHT22;3777;48.722;8.110;2023-02-26T00:43:54;2.40;99.90
7472;DHT22;3777;48.722;8.110;2023-02-26T00:46:27;2.40;99.90
7472;DHT22;3777;48.722;8.110;2023-02-26T00:49:02;2.40;99.90
7472;DHT22;3777;48.722;8.110;2023-02-26T00:51:40;2.40;99.90
7472;DHT22;3777;48.722;8.110;2023-02-26T00:54:15;2.40;99.90
7472;DHT22;3777;48.722;8.110;2023-02-26T00:56:43;2.30;99.90
7472;DHT22;3777;48.722;8.110;2023-02-26T00:59:10;2.30;99.90
7472;DHT22;3777;48.722;8.110;2023-02-26T01:01:37;2.30;99.90
7472;DHT22;3777;48.722;8.110;2023-02-26T01:04:05;2.20;99.90
7472;DHT22;3777;48.722;8.110;2023-02-26T01:06:33;2.30;99.90
7472;DHT22;3777;48.722;8.110;2023-02-26T01:09:08;2.20;99.90
7472;DHT22;3777;48.722;8.110;2023-02-26T01:11:36;2.30;99.90
7472;DHT22;3777;48.722;8.110;2023-02-26T01:14:04;2.50;99.90
7472;DHT22;3777;48.722;8.110;2023-02-26T01:16:36;2.50;99.90
7472;DHT22;3777;48.722;8.110;2023-02-26T01:19:08;2.40;99.90
7472;DHT22;3777;48.722;8.110;2023-02-26T01:21:45;2.40;99.90
7472;DHT22;3777;48.722;8.110;2023-02-26T01:24:16;2.40;99.90
7472;DHT22;3777;48.722;8.110;2023-02-26T01:26:46;2.30;99.90
7472;DHT22;3777;48.722;8.110;2023-02-26T01:29:14;2.30;99.90
7472;DHT22;3777;48.722;8.110;2023-02-26T01:31:48;2.40;99.90
7472;DHT22;3777;48.722;8.110;2023-02-26T01:34:18;2.40;99.90
7472;DHT22;3777;48.722;8.110;2023-02-26T01:36:52;2.40;99.90
7472;DHT22;3777;48.722;8.110;2023-02-26T01:39:25;2.40;99.90
7472;DHT22;3777;48.722;8.110;2023-02-26T01:41:55;2.40;99.90
7472;DHT22;3777;48.722;8.110;2023-02-26T01:44:28;2.40;99.90
7472;DHT22;3777;48.722;8.110;2023-02-26T01:47:09;2.30;99.90
7472;DHT22;3777;48.722;8.110;2023-02-26T01:49:38;2.30;99.90
7472;DHT22;3777;48.722;8.110;2023-02-26T01:52:06;2.20;99.90
7472;DHT22;3777;48.722;8.110;2023-02-26T01:54:36;2.20;99.90
7472;DHT22;3777;48.722;8.110;2023-02-26T01:57:05;2.20;99.90
7472;DHT22;3777;48.722;8.110;2023-02-26T01:59:35;2.10;99.90
7472;DHT22;3777;48.722;8.110;2023-02-26T02:02:05;2.10;99.90
7472;DHT22;3777;48.722;8.110;2023-02-26T02:04:32;2.00;99.90
7472;DHT22;3777;48.722;8.110;2023-02-26T02:07:00;2.00;99.90
7472;DHT22;3777;48.722;8.110;2023-02-26T02:09:27;2.00;99.90
7472;DHT22;3777;48.722;8.110;2023-02-26T02:12:06;2.00;99.90
7472;DHT22;3777;48.722;8.110;2023-02-26T02:14:42;1.90;99.90
7472;DHT22;3777;48.722;8.110;2023-02-26T02:17:15;1.90;99.90
7472;DHT22;3777;48.722;8.110;2023-02-26T02:19:58;1.90;99.90
7472;DHT22;3777;48.722;8.110;2023-02-26T02:22:55;1.90;99.90
7472;DHT22;3777;48.722;8.110;2023-02-26T02:25:39;1.80;99.90
7472;DHT22;3777;48.722;8.110;2023-02-26T02:28:22;1.80;99.90
7472;DHT22;3777;48.722;8.110;2023-02-26T02:31:01;1.80;99.90
7472;DHT22;3777;48.722;8.110;2023-02-26T02:33:35;1.80;99.90
7472;DHT22;3777;48.722;8.110;2023-02-26T02:36:09;1.80;99.90
7472;DHT22;3777;48.722;8.110;2023-02-26T02:38:44;1.80;99.90
7472;DHT22;3777;48.722;8.110;2023-02-26T02:41:15;1.70;99.90
7472;DHT22;3777;48.722;8.110;2023-02-26T02:43:44;1.70;99.90
7472;DHT22;3777;48.722;8.110;2023-02-26T02:46:17;1.70;99.90
7472;DHT22;3777;48.722;8.110;2023-02-26T02:48:46;1.70;99.90
7472;DHT22;3777;48.722;8.110;2023-02-26T02:51:18;1.70;99.90
7472;DHT22;3777;48.722;8.110;2023-02-26T02:53:50;1.60;99.90
7472;DHT22;3777;48.722;8.110;2023-02-26T02:56:22;1.60;99.90
7472;DHT22;3777;48.722;8.110;2023-02-26T02:58:56;1.60;99.90
7472;DHT22;3777;48.722;8.110;2023-02-26T03:01:26;1.60;99.90
7472;DHT22;3777;48.722;8.110;2023-02-26T03:03:57;1.60;99.90
7472;DHT22;3777;48.722;8.110;2023-02-26T03:06:26;1.60;99.90
7472;DHT22;3777;48.722;8.110;2023-02-26T03:08:53;1.60;99.90
7472;DHT22;3777;48.722;8.110;2023-02-26T03:11:21;1.50;99.90
7472;DHT22;3777;48.722;8.110;2023-02-26T03:13:49;1.50;99.90
7472;DHT22;3777;48.722;8.110;2023-02-26T03:19:19;1.50;99.90
7472;DHT22;3777;48.722;8.110;2023-02-26T03:21:52;1.50;99.90
7472;DHT22;3777;48.722;8.110;2023-02-26T03:24:27;1.50;99.90
7472;DHT22;3777;48.722;8.110;2023-02-26T03:26:58;1.50;99.90
7472;DHT22;3777;48.722;8.110;2023-02-26T03:29:32;1.40;99.90
7472;DHT22;3777;48.722;8.110;2023-02-26T03:32:05;1.40;99.90
7472;DHT22;3777;48.722;8.110;2023-02-26T03:34:39;1.40;99.90
7472;DHT22;3777;48.722;8.110;2023-02-26T03:37:12;1.40;99.90
7472;DHT22;3777;48.722;8.110;2023-02-26T03:39:44;1.40;99.90
7472;DHT22;3777;48.722;8.110;2023-02-26T03:42:17;1.40;99.90
7472;DHT22;3777;48.722;8.110;2023-02-26T03:44:51;1.30;99.90
7472;DHT22;3777;48.722;8.110;2023-02-26T03:47:19;1.30;99.90
7472;DHT22;3777;48.722;8.110;2023-02-26T03:49:53;1.30;99.90
7472;DHT22;3777;48.722;8.110;2023-02-26T03:52:23;1.30;99.90
7472;DHT22;3777;48.722;8.110;2023-02-26T03:54:55;1.30;99.90
7472;DHT22;3777;48.722;8.110;2023-02-26T03:57:24;1.30;99.90
7472;DHT22;3777;48.722;8.110;2023-02-26T03:59:51;1.30;99.90
7472;DHT22;3777;48.722;8.110;2023-02-26T04:02:21;1.20;99.90
7472;DHT22;3777;48.722;8.110;2023-02-26T04:04:54;1.20;99.90
7472;DHT22;3777;48.722;8.110;2023-02-26T04:07:22;1.20;99.90
7472;DHT22;3777;48.722;8.110;2023-02-26T04:09:50;1.20;99.90
7472;DHT22;3777;48.722;8.110;2023-02-26T04:12:20;1.20;99.90
7472;DHT22;3777;48.722;8.110;2023-02-26T04:14:47;1.10;99.90
7472;DHT22;3777;48.722;8.110;2023-02-26T04:17:14;1.20;99.90
7472;DHT22;3777;48.722;8.110;2023-02-26T04:19:41;1.10;99.90
7472;DHT22;3777;48.722;8.110;2023-02-26T04:22:10;1.10;99.90
7472;DHT22;3777;48.722;8.110;2023-02-26T04:24:37;1.10;99.90
7472;DHT22;3777;48.722;8.110;2023-02-26T04:27:04;1.10;99.90
7472;DHT22;3777;48.722;8.110;2023-02-26T04:29:31;1.00;99.90
7472;DHT22;3777;48.722;8.110;2023-02-26T04:31:58;1.00;99.90
7472;DHT22;3777;48.722;8.110;2023-02-26T04:34:25;1.00;99.90
7472;DHT22;3777;48.722;8.110;2023-02-26T04:36:52;1.00;99.90
7472;DHT22;3777;48.722;8.110;2023-02-26T04:39:20;0.90;99.90
7472;DHT22;3777;48.722;8.110;2023-02-26T04:41:47;0.90;99.90
7472;DHT22;3777;48.722;8.110;2023-02-26T04:44:14;0.90;99.90
7472;DHT22;3777;48.722;8.110;2023-02-26T04:46:41;0.90;99.90
7472;DHT22;3777;48.722;8.110;2023-02-26T04:49:08;0.90;99.90
7472;DHT22;3777;48.722;8.110;2023-02-26T04:51:35;0.90;99.90
7472;DHT22;3777;48.722;8.110;2023-02-26T04:54:02;0.90;99.90
7472;DHT22;3777;48.722;8.110;2023-02-26T04:56:31;0.90;99.90
7472;DHT22;3777;48.722;8.110;2023-02-26T04:58:58;0.90;99.90
7472;DHT22;3777;48.722;8.110;2023-02-26T05:01:25;0.90;99.90
7472;DHT22;3777;48.722;8.110;2023-02-26T05:03:52;0.90;99.90
7472;DHT22;3777;48.722;8.110;2023-02-26T05:06:18;0.90;99.90
7472;DHT22;3777;48.722;8.110;2023-02-26T05:08:45;1.00;99.90
7472;DHT22;3777;48.722;8.110;2023-02-26T05:11:12;0.90;99.90
7472;DHT22;3777;48.722;8.110;2023-02-26T05:13:41;0.90;99.90
7472;DHT22;3777;48.722;8.110;2023-02-26T05:16:08;0.90;99.90
7472;DHT22;3777;48.722;8.110;2023-02-26T05:18:35;0.90;99.90
7472;DHT22;3777;48.722;8.110;2023-02-26T05:21:03;0.90;99.90
7472;DHT22;3777;48.722;8.110;2023-02-26T05:23:30;0.90;99.90
7472;DHT22;3777;48.722;8.110;2023-02-26T05:25:58;1.00;99.90
7472;DHT22;3777;48.722;8.110;2023-02-26T05:28:26;1.00;99.90
7472;DHT22;3777;48.722;8.110;2023-02-26T05:30:55;1.00;99.90
7472;DHT22;3777;48.722;8.110;2023-02-26T05:33:22;1.00;99.90
7472;DHT22;3777;48.722;8.110;2023-02-26T05:35:49;1.00;99.90
7472;DHT22;3777;48.722;8.110;2023-02-26T05:38:16;1.00;99.90
7472;DHT22;3777;48.722;8.110;2023-02-26T05:40:43;1.00;99.90
7472;DHT22;3777;48.722;8.110;2023-02-26T05:43:10;0.90;99.90
7472;DHT22;3777;48.722;8.110;2023-02-26T05:45:37;0.80;99.90
7472;DHT22;3777;48.722;8.110;2023-02-26T05:48:05;0.80;99.90
7472;DHT22;3777;48.722;8.110;2023-02-26T05:50:32;0.80;99.90
7472;DHT22;3777;48.722;8.110;2023-02-26T05:52:59;0.80;99.90
7472;DHT22;3777;48.722;8.110;2023-02-26T05:55:26;0.80;99.90
7472;DHT22;3777;48.722;8.110;2023-02-26T05:57:53;0.80;99.90
7472;DHT22;3777;48.722;8.110;2023-02-26T06:00:20;0.80;99.90
7472;DHT22;3777;48.722;8.110;2023-02-26T06:02:47;0.80;99.90
7472;DHT22;3777;48.722;8.110;2023-02-26T06:05:16;0.80;99.90
7472;DHT22;3777;48.722;8.110;2023-02-26T06:07:42;0.80;99.90
7472;DHT22;3777;48.722;8.110;2023-02-26T06:10:11;0.70;99.90
7472;DHT22;3777;48.722;8.110;2023-02-26T06:12:37;0.70;99.90
7472;DHT22;3777;48.722;8.110;2023-02-26T06:15:06;0.70;99.90
7472;DHT22;3777;48.722;8.110;2023-02-26T06:17:34;0.70;99.90
7472;DHT22;3777;48.722;8.110;2023-02-26T06:20:01;0.70;99.90
7472;DHT22;3777;48.722;8.110;2023-02-26T06:22:30;0.70;99.90
7472;DHT22;3777;48.722;8.110;2023-02-26T06:24:57;0.70;99.90
7472;DHT22;3777;48.722;8.110;2023-02-26T06:27:24;0.70;99.90
7472;DHT22;3777;48.722;8.110;2023-02-26T06:29:51;0.70;99.90
7472;DHT22;3777;48.722;8.110;2023-02-26T06:32:18;0.60;99.90
7472;DHT22;3777;48.722;8.110;2023-02-26T06:34:45;0.60;99.90
7472;DHT22;3777;48.722;8.110;2023-02-26T06:37:12;0.60;99.90
7472;DHT22;3777;48.722;8.110;2023-02-26T06:39:41;0.60;99.90
7472;DHT22;3777;48.722;8.110;2023-02-26T06:42:08;0.60;99.90
7472;DHT22;3777;48.722;8.110;2023-02-26T06:44:35;0.60;99.90
7472;DHT22;3777;48.722;8.110;2023-02-26T06:47:02;0.60;99.90
7472;DHT22;3777;48.722;8.110;2023-02-26T06:49:29;0.70;99.90
7472;DHT22;3777;48.722;8.110;2023-02-26T06:51:56;0.70;99.90
7472;DHT22;3777;48.722;8.110;2023-02-26T06:54:23;0.80;99.90
7472;DHT22;3777;48.722;8.110;2023-02-26T06:56:51;0.80;99.90
7472;DHT22;3777;48.722;8.110;2023-02-26T06:59:22;0.70;99.90
7472;DHT22;3777;48.722;8.110;2023-02-26T07:01:49;0.70;99.90
7472;DHT22;3777;48.722;8.110;2023-02-26T07:04:16;0.60;99.90
7472;DHT22;3777;48.722;8.110;2023-02-26T07:06:43;0.70;99.90
7472;DHT22;3777;48.722;8.110;2023-02-26T07:09:10;0.70;99.90
7472;DHT22;3777;48.722;8.110;2023-02-26T07:11:36;0.80;99.90
7472;DHT22;3777;48.722;8.110;2023-02-26T07:14:05;0.80;99.90
7472;DHT22;3777;48.722;8.110;2023-02-26T07:16:32;0.80;99.90
7472;DHT22;3777;48.722;8.110;2023-02-26T07:18:59;0.80;99.90
7472;DHT22;3777;48.722;8.110;2023-02-26T07:21:26;0.90;99.90
7472;DHT22;3777;48.722;8.110;2023-02-26T07:23:52;0.90;99.90
7472;DHT22;3777;48.722;8.110;2023-02-26T07:26:19;0.90;99.90
7472;DHT22;3777;48.722;8.110;2023-02-26T07:28:46;1.00;99.90
7472;DHT22;3777;48.722;8.110;2023-02-26T07:31:15;1.10;99.90
7472;DHT22;3777;48.722;8.110;2023-02-26T07:33:42;1.20;99.90
7472;DHT22;3777;48.722;8.110;2023-02-26T07:36:09;1.30;99.90
7472;DHT22;3777;48.722;8.110;2023-02-26T07:38:36;1.30;99.90
7472;DHT22;3777;48.722;8.110;2023-02-26T07:41:03;1.50;99.90
7472;DHT22;3777;48.722;8.110;2023-02-26T07:43:30;1.60;99.90
7472;DHT22;3777;48.722;8.110;2023-02-26T07:45:57;1.80;99.90
7472;DHT22;3777;48.722;8.110;2023-02-26T07:48:25;2.00;99.90
7472;DHT22;3777;48.722;8.110;2023-02-26T07:50:52;2.20;99.90
7472;DHT22;3777;48.722;8.110;2023-02-26T07:53:20;2.50;99.90
7472;DHT22;3777;48.722;8.110;2023-02-26T07:55:47;2.40;99.90
7472;DHT22;3777;48.722;8.110;2023-02-26T07:58:14;2.20;99.90
7472;DHT22;3777;48.722;8.110;2023-02-26T08:00:41;2.00;99.90
7472;DHT22;3777;48.722;8.110;2023-02-26T08:03:08;1.90;99.90
7472;DHT22;3777;48.722;8.110;2023-02-26T08:05:36;1.80;99.90
7472;DHT22;3777;48.722;8.110;2023-02-26T08:08:03;1.80;99.90
7472;DHT22;3777;48.722;8.110;2023-02-26T08:10:30;1.80;99.90
7472;DHT22;3777;48.722;8.110;2023-02-26T08:12:57;1.80;99.90
7472;DHT22;3777;48.722;8.110;2023-02-26T08:15:24;1.90;99.90
7472;DHT22;3777;48.722;8.110;2023-02-26T08:17:51;1.90;99.90
7472;DHT22;3777;48.722;8.110;2023-02-26T08:20:19;1.90;99.90
7472;DHT22;3777;48.722;8.110;2023-02-26T08:22:47;1.90;99.90
7472;DHT22;3777;48.722;8.110;2023-02-26T08:25:14;2.00;99.90
7472;DHT22;3777;48.722;8.110;2023-02-26T08:27:41;2.00;99.90
7472;DHT22;3777;48.722;8.110;2023-02-26T08:30:09;2.10;99.90
7472;DHT22;3777;48.722;8.110;2023-02-26T08:32:36;2.10;99.90
7472;DHT22;3777;48.722;8.110;2023-02-26T08:35:07;2.10;99.90
7472;DHT22;3777;48.722;8.110;2023-02-26T08:37:34;2.20;99.90
7472;DHT22;3777;48.722;8.110;2023-02-26T08:40:04;2.20;99.90
7472;DHT22;3777;48.722;8.110;2023-02-26T08:42:31;2.40;99.90
7472;DHT22;3777;48.722;8.110;2023-02-26T08:44:58;2.40;99.90
7472;DHT22;3777;48.722;8.110;2023-02-26T08:47:25;2.40;99.90
7472;DHT22;3777;48.722;8.110;2023-02-26T08:49:52;2.50;99.90
7472;DHT22;3777;48.722;8.110;2023-02-26T08:52:19;2.80;99.90
7472;DHT22;3777;48.722;8.110;2023-02-26T08:54:46;3.00;99.90
7472;DHT22;3777;48.722;8.110;2023-02-26T08:57:15;3.10;99.90
7472;DHT22;3777;48.722;8.110;2023-02-26T08:59:42;3.20;99.90
7472;DHT22;3777;48.722;8.110;2023-02-26T09:02:10;3.30;99.90
7472;DHT22;3777;48.722;8.110;2023-02-26T09:04:37;3.50;99.90
7472;DHT22;3777;48.722;8.110;2023-02-26T09:07:04;3.50;99.90
7472;DHT22;3777;48.722;8.110;2023-02-26T09:09:31;3.20;99.90
7472;DHT22;3777;48.722;8.110;2023-02-26T09:11:58;3.30;99.90
7472;DHT22;3777;48.722;8.110;2023-02-26T09:14:26;3.20;99.90
7472;DHT22;3777;48.722;8.110;2023-02-26T09:16:53;3.10;99.90
7472;DHT22;3777;48.722;8.110;2023-02-26T09:19:20;3.20;99.90
7472;DHT22;3777;48.722;8.110;2023-02-26T09:21:47;3.20;99.90
7472;DHT22;3777;48.722;8.110;2023-02-26T09:24:14;3.30;99.90
7472;DHT22;3777;48.722;8.110;2023-02-26T09:26:41;3.20;99.90
7472;DHT22;3777;48.722;8.110;2023-02-26T09:29:08;3.20;99.90
7472;DHT22;3777;48.722;8.110;2023-02-26T09:31:37;3.20;99.90
7472;DHT22;3777;48.722;8.110;2023-02-26T09:34:04;3.20;99.90
7472;DHT22;3777;48.722;8.110;2023-02-26T09:36:31;3.10;99.90
7472;DHT22;3777;48.722;8.110;2023-02-26T09:38:58;3.10;99.90
7472;DHT22;3777;48.722;8.110;2023-02-26T09:41:28;3.30;99.90
7472;DHT22;3777;48.722;8.110;2023-02-26T09:44:14;3.30;99.90
7472;DHT22;3777;48.722;8.110;2023-02-26T09:46:50;3.50;99.90
7472;DHT22;3777;48.722;8.110;2023-02-26T09:49:30;3.30;99.90
7472;DHT22;3777;48.722;8.110;2023-02-26T09:52:02;3.00;99.90
7472;DHT22;3777;48.722;8.110;2023-02-26T09:54:33;2.90;99.90
7472;DHT22;3777;48.722;8.110;2023-02-26T09:57:04;2.80;99.90
7472;DHT22;3777;48.722;8.110;2023-02-26T09:59:32;2.90;99.90
7472;DHT22;3777;48.722;8.110;2023-02-26T10:02:04;3.20;99.90
7472;DHT22;3777;48.722;8.110;2023-02-26T10:04:48;3.20;99.90
7472;DHT22;3777;48.722;8.110;2023-02-26T10:07:24;3.20;99.90
7472;DHT22;3777;48.722;8.110;2023-02-26T10:10:08;3.30;99.90
7472;DHT22;3777;48.722;8.110;2023-02-26T10:12:40;3.30;99.90
7472;DHT22;3777;48.722;8.110;2023-02-26T10:15:12;3.30;99.90
7472;DHT22;3777;48.722;8.110;2023-02-26T10:17:51;3.20;99.90
7472;DHT22;3777;48.722;8.110;2023-02-26T10:20:23;3.10;99.90
7472;DHT22;3777;48.722;8.110;2023-02-26T10:22:56;3.20;99.90
7472;DHT22;3777;48.722;8.110;2023-02-26T10:25:28;3.20;99.90
7472;DHT22;3777;48.722;8.110;2023-02-26T10:28:00;3.20;99.90
7472;DHT22;3777;48.722;8.110;2023-02-26T10:30:34;3.20;99.90
7472;DHT22;3777;48.722;8.110;2023-02-26T10:33:14;3.10;99.90
7472;DHT22;3777;48.722;8.110;2023-02-26T10:35:51;3.10;99.90
7472;DHT22;3777;48.722;8.110;2023-02-26T10:38:22;3.10;99.90
7472;DHT22;3777;48.722;8.110;2023-02-26T10:40:54;3.10;99.90
7472;DHT22;3777;48.722;8.110;2023-02-26T10:43:26;2.90;99.90
7472;DHT22;3777;48.722;8.110;2023-02-26T10:46:04;2.90;99.90
7472;DHT22;3777;48.722;8.110;2023-02-26T10:48:53;3.00;99.90
7472;DHT22;3777;48.722;8.110;2023-02-26T10:51:33;2.90;99.90
7472;DHT22;3777;48.722;8.110;2023-02-26T10:54:05;2.90;99.90
7472;DHT22;3777;48.722;8.110;2023-02-26T10:56:36;3.00;99.90
7472;DHT22;3777;48.722;8.110;2023-02-26T10:59:03;3.10;99.90
7472;DHT22;3777;48.722;8.110;2023-02-26T11:01:31;3.10;99.90
7472;DHT22;3777;48.722;8.110;2023-02-26T11:04:01;3.20;99.90
7472;DHT22;3777;48.722;8.110;2023-02-26T11:06:31;3.20;99.90
7472;DHT22;3777;48.722;8.110;2023-02-26T11:09:00;3.00;99.90
7472;DHT22;3777;48.722;8.110;2023-02-26T11:11:36;3.00;99.90
7472;DHT22;3777;48.722;8.110;2023-02-26T11:14:05;2.90;99.90
7472;DHT22;3777;48.722;8.110;2023-02-26T11:16:34;2.80;99.90
7472;DHT22;3777;48.722;8.110;2023-02-26T11:19:05;2.80;99.90
7472;DHT22;3777;48.722;8.110;2023-02-26T11:21:37;3.00;99.90
7472;DHT22;3777;48.722;8.110;2023-02-26T11:24:06;3.10;99.90
7472;DHT22;3777;48.722;8.110;2023-02-26T11:26:36;3.20;99.90
7472;DHT22;3777;48.722;8.110;2023-02-26T11:29:04;3.40;99.90
7472;DHT22;3777;48.722;8.110;2023-02-26T11:31:31;3.40;99.90
7472;DHT22;3777;48.722;8.110;2023-02-26T11:34:03;3.20;99.90
7472;DHT22;3777;48.722;8.110;2023-02-26T11:36:32;3.40;99.90
7472;DHT22;3777;48.722;8.110;2023-02-26T11:39:02;3.60;99.90
7472;DHT22;3777;48.722;8.110;2023-02-26T11:41:35;3.60;99.90
7472;DHT22;3777;48.722;8.110;2023-02-26T11:44:06;3.60;99.90
7472;DHT22;3777;48.722;8.110;2023-02-26T11:46:39;3.60;99.90
7472;DHT22;3777;48.722;8.110;2023-02-26T11:49:09;3.70;99.90
7472;DHT22;3777;48.722;8.110;2023-02-26T11:51:42;3.90;99.90
7472;DHT22;3777;48.722;8.110;2023-02-26T11:54:20;4.10;99.90
7472;DHT22;3777;48.722;8.110;2023-02-26T11:56:48;4.20;99.90
7472;DHT22;3777;48.722;8.110;2023-02-26T11:59:17;4.30;99.90
7472;DHT22;3777;48.722;8.110;2023-02-26T12:01:46;4.20;99.90
7472;DHT22;3777;48.722;8.110;2023-02-26T12:04:18;4.00;99.90
7472;DHT22;3777;48.722;8.110;2023-02-26T12:06:47;3.90;99.90
7472;DHT22;3777;48.722;8.110;2023-02-26T12:09:16;3.80;99.90
7472;DHT22;3777;48.722;8.110;2023-02-26T12:14:46;3.80;99.90
7472;DHT22;3777;48.722;8.110;2023-02-26T12:17:38;3.60;99.90
7472;DHT22;3777;48.722;8.110;2023-02-26T12:20:17;3.60;99.90
7472;DHT22;3777;48.722;8.110;2023-02-26T12:22:50;3.80;99.90
7472;DHT22;3777;48.722;8.110;2023-02-26T12:25:43;3.90;99.90
7472;DHT22;3777;48.722;8.110;2023-02-26T12:28:34;3.90;99.90
7472;DHT22;3777;48.722;8.110;2023-02-26T12:31:43;3.90;99.90
7472;DHT22;3777;48.722;8.110;2023-02-26T12:34:22;3.80;99.90
7472;DHT22;3777;48.722;8.110;2023-02-26T12:37:06;3.80;99.90
7472;DHT22;3777;48.722;8.110;2023-02-26T12:39:49;3.70;99.90
7472;DHT22;3777;48.722;8.110;2023-02-26T12:42:28;3.60;99.90
7472;DHT22;3777;48.722;8.110;2023-02-26T12:45:27;3.50;99.90
7472;DHT22;3777;48.722;8.110;2023-02-26T12:48:09;3.40;99.90
7472;DHT22;3777;48.722;8.110;2023-02-26T12:50:51;3.50;99.90
7472;DHT22;3777;48.722;8.110;2023-02-26T12:53:45;3.50;99.90
7472;DHT22;3777;48.722;8.110;2023-02-26T12:56:33;3.50;99.90
7472;DHT22;3777;48.722;8.110;2023-02-26T12:59:16;3.60;99.90
7472;DHT22;3777;48.722;8.110;2023-02-26T13:07:50;4.20;99.90
7472;DHT22;3777;48.722;8.110;2023-02-26T13:10:28;4.30;99.90
7472;DHT22;3777;48.722;8.110;2023-02-26T13:13:13;4.30;99.90
7472;DHT22;3777;48.722;8.110;2023-02-26T13:15:58;4.30;99.90
7472;DHT22;3777;48.722;8.110;2023-02-26T13:18:34;4.10;99.90
7472;DHT22;3777;48.722;8.110;2023-02-26T13:21:06;4.00;99.90
7472;DHT22;3777;48.722;8.110;2023-02-26T13:23:39;3.90;99.90
7472;DHT22;3777;48.722;8.110;2023-02-26T13:26:11;3.80;99.90
7472;DHT22;3777;48.722;8.110;2023-02-26T13:28:42;3.70;99.90
7472;DHT22;3777;48.722;8.110;2023-02-26T13:31:14;3.60;99.90
7472;DHT22;3777;48.722;8.110;2023-02-26T13:33:42;3.70;99.90
7472;DHT22;3777;48.722;8.110;2023-02-26T13:36:09;3.80;99.90
7472;DHT22;3777;48.722;8.110;2023-02-26T13:38:48;3.80;99.90
7472;DHT22;3777;48.722;8.110;2023-02-26T13:41:25;3.70;99.90
7472;DHT22;3777;48.722;8.110;2023-02-26T13:44:08;3.90;99.90
7472;DHT22;3777;48.722;8.110;2023-02-26T13:46:51;3.80;99.90
7472;DHT22;3777;48.722;8.110;2023-02-26T13:49:24;3.80;99.90
7472;DHT22;3777;48.722;8.110;2023-02-26T13:51:56;3.90;99.90
7472;DHT22;3777;48.722;8.110;2023-02-26T13:54:34;3.90;99.90
7472;DHT22;3777;48.722;8.110;2023-02-26T13:57:23;3.90;99.90
7472;DHT22;3777;48.722;8.110;2023-02-26T13:59:59;4.00;99.90
7472;DHT22;3777;48.722;8.110;2023-02-26T14:08:44;4.00;99.90
7472;DHT22;3777;48.722;8.110;2023-02-26T14:14:22;4.30;99.90
7472;DHT22;3777;48.722;8.110;2023-02-26T14:16:53;4.40;99.90
7472;DHT22;3777;48.722;8.110;2023-02-26T14:19:27;4.50;99.90
7472;DHT22;3777;48.722;8.110;2023-02-26T14:21:56;4.50;99.90
7472;DHT22;3777;48.722;8.110;2023-02-26T14:24:29;4.40;99.90
7472;DHT22;3777;48.722;8.110;2023-02-26T14:27:22;4.30;99.90
7472;DHT22;3777;48.722;8.110;2023-02-26T14:30:11;4.20;99.90
7472;DHT22;3777;48.722;8.110;2023-02-26T14:32:46;4.10;99.90
7472;DHT22;3777;48.722;8.110;2023-02-26T14:35:16;3.90;99.90
7472;DHT22;3777;48.722;8.110;2023-02-26T14:37:46;3.80;99.90
7472;DHT22;3777;48.722;8.110;2023-02-26T14:40:17;3.70;99.90
7472;DHT22;3777;48.722;8.110;2023-02-26T14:42:48;3.70;99.90
7472;DHT22;3777;48.722;8.110;2023-02-26T14:45:26;3.70;99.90
7472;DHT22;3777;48.722;8.110;2023-02-26T14:47:54;3.80;99.90
7472;DHT22;3777;48.722;8.110;2023-02-26T14:50:22;3.80;99.90
7472;DHT22;3777;48.722;8.110;2023-02-26T14:56:02;3.90;99.90
7472;DHT22;3777;48.722;8.110;2023-02-26T14:58:49;4.00;99.90
7472;DHT22;3777;48.722;8.110;2023-02-26T15:01:35;3.90;99.90
7472;DHT22;3777;48.722;8.110;2023-02-26T15:04:22;4.00;99.90
7472;DHT22;3777;48.722;8.110;2023-02-26T15:07:05;4.00;99.90
7472;DHT22;3777;48.722;8.110;2023-02-26T15:09:44;4.00;99.90
7472;DHT22;3777;48.722;8.110;2023-02-26T15:12:25;3.90;99.90
7472;DHT22;3777;48.722;8.110;2023-02-26T15:15:05;3.70;99.90
7472;DHT22;3777;48.722;8.110;2023-02-26T15:17:52;3.50;99.90
7472;DHT22;3777;48.722;8.110;2023-02-26T15:20:29;3.50;99.90
7472;DHT22;3777;48.722;8.110;2023-02-26T15:23:11;3.40;99.90
7472;DHT22;3777;48.722;8.110;2023-02-26T15:25:43;3.40;99.90
7472;DHT22;3777;48.722;8.110;2023-02-26T15:28:14;3.50;99.90
7472;DHT22;3777;48.722;8.110;2023-02-26T15:30:47;3.60;99.90
7472;DHT22;3777;48.722;8.110;2023-02-26T15:33:17;3.80;99.90
7472;DHT22;3777;48.722;8.110;2023-02-26T15:35:47;3.90;99.90
7472;DHT22;3777;48.722;8.110;2023-02-26T15:38:15;4.00;99.90
7472;DHT22;3777;48.722;8.110;2023-02-26T15:40:42;4.00;99.90
7472;DHT22;3777;48.722;8.110;2023-02-26T15:43:13;4.10;99.90
7472;DHT22;3777;48.722;8.110;2023-02-26T15:45:42;4.10;99.90
7472;DHT22;3777;48.722;8.110;2023-02-26T15:48:13;4.10;99.90
7472;DHT22;3777;48.722;8.110;2023-02-26T15:50:44;4.10;99.90
7472;DHT22;3777;48.722;8.110;2023-02-26T15:53:16;4.00;99.90
7472;DHT22;3777;48.722;8.110;2023-02-26T15:55:46;3.90;99.90
7472;DHT22;3777;48.722;8.110;2023-02-26T15:58:19;3.80;99.90
7472;DHT22;3777;48.722;8.110;2023-02-26T16:00:51;3.90;99.90
7472;DHT22;3777;48.722;8.110;2023-02-26T16:03:24;3.90;99.90
7472;DHT22;3777;48.722;8.110;2023-02-26T16:05:55;4.00;99.90
7472;DHT22;3777;48.722;8.110;2023-02-26T16:08:22;4.00;99.90
7472;DHT22;3777;48.722;8.110;2023-02-26T16:10:50;3.90;99.90
7472;DHT22;3777;48.722;8.110;2023-02-26T16:13:25;3.90;99.90
7472;DHT22;3777;48.722;8.110;2023-02-26T16:15:54;3.90;99.90
7472;DHT22;3777;48.722;8.110;2023-02-26T16:18:24;3.90;99.90
7472;DHT22;3777;48.722;8.110;2023-02-26T16:20:55;3.90;99.90
7472;DHT22;3777;48.722;8.110;2023-02-26T16:23:25;3.90;99.90
7472;DHT22;3777;48.722;8.110;2023-02-26T16:25:56;3.90;99.90
7472;DHT22;3777;48.722;8.110;2023-02-26T16:28:28;3.80;99.90
7472;DHT22;3777;48.722;8.110;2023-02-26T16:30:59;3.80;99.90
7472;DHT22;3777;48.722;8.110;2023-02-26T16:33:31;3.80;99.90
7472;DHT22;3777;48.722;8.110;2023-02-26T16:36:08;3.80;99.90
7472;DHT22;3777;48.722;8.110;2023-02-26T16:38:44;3.80;99.90
7472;DHT22;3777;48.722;8.110;2023-02-26T16:41:12;3.80;99.90
7472;DHT22;3777;48.722;8.110;2023-02-26T16:43:51;3.50;99.90
7472;DHT22;3777;48.722;8.110;2023-02-26T16:46:25;3.30;99.90
7472;DHT22;3777;48.722;8.110;2023-02-26T16:48:55;3.20;99.90
7472;DHT22;3777;48.722;8.110;2023-02-26T16:51:29;3.20;99.90
7472;DHT22;3777;48.722;8.110;2023-02-26T16:53:58;3.20;99.90
7472;DHT22;3777;48.722;8.110;2023-02-26T16:56:31;3.20;99.90
7472;DHT22;3777;48.722;8.110;2023-02-26T16:59:03;3.30;99.90
7472;DHT22;3777;48.722;8.110;2023-02-26T17:01:34;3.30;99.90
7472;DHT22;3777;48.722;8.110;2023-02-26T17:04:02;3.30;99.90
7472;DHT22;3777;48.722;8.110;2023-02-26T17:06:31;3.20;99.90
7472;DHT22;3777;48.722;8.110;2023-02-26T17:09:04;3.30;99.90